sensor_id;sensor_type;location;lat;lon;timestamp;P1;durP1;ratioP1;P2;durP2;ratioP2
21860;SDS011;11095;48.066;8.540;2023-07-31T00:01:48;4.72;;;2.70;;
21860;SDS011;11095;48.066;8.540;2023-07-31T00:04:13;4.25;;;2.55;;
21860;SDS011;11095;48.066;8.540;2023-07-31T00:06:39;4.70;;;2.90;;
21860;SDS011;11095;48.066;8.540;2023-07-31T00:09:04;4.50;;;2.80;;
21860;SDS011;11095;48.066;8.540;2023-07-31T00:11:30;3.78;;;2.40;;
21860;SDS011;11095;48.066;8.540;2023-07-31T00:13:55;3.47;;;2.50;;
21860;SDS011;11095;48.066;8.540;2023-07-31T00:16:21;3.55;;;2.10;;
21860;SDS011;11095;48.066;8.540;2023-07-31T00:18:46;3.58;;;2.60;;
21860;SDS011;11095;48.066;8.540;2023-07-31T00:21:12;5.47;;;2.40;;
21860;SDS011;11095;48.066;8.540;2023-07-31T00:23:38;2.92;;;2.30;;
21860;SDS011;11095;48.066;8.540;2023-07-31T00:26:03;3.40;;;2.38;;
21860;SDS011;11095;48.066;8.540;2023-07-31T00:28:29;3.83;;;2.38;;
21860;SDS011;11095;48.066;8.540;2023-07-31T00:30:54;4.82;;;2.50;;
21860;SDS011;11095;48.066;8.540;2023-07-31T00:33:20;3.15;;;2.35;;
21860;SDS011;11095;48.066;8.540;2023-07-31T00:35:45;2.92;;;2.20;;
21860;SDS011;11095;48.066;8.540;2023-07-31T00:38:11;3.17;;;2.50;;
21860;SDS011;11095;48.066;8.540;2023-07-31T00:40:36;4.65;;;2.90;;
21860;SDS011;11095;48.066;8.540;2023-07-31T00:43:02;4.57;;;2.80;;
21860;SDS011;11095;48.066;8.540;2023-07-31T00:45:28;3.28;;;2.65;;
21860;SDS011;11095;48.066;8.540;2023-07-31T00:47:54;4.13;;;2.95;;
21860;SDS011;11095;48.066;8.540;2023-07-31T00:50:21;4.30;;;2.88;;
21860;SDS011;11095;48.066;8.540;2023-07-31T00:52:49;5.07;;;2.70;;
21860;SDS011;11095;48.066;8.540;2023-07-31T00:55:14;4.28;;;2.70;;
21860;SDS011;11095;48.066;8.540;2023-07-31T00:57:40;4.32;;;2.90;;
21860;SDS011;11095;48.066;8.540;2023-07-31T01:00:07;2.83;;;2.50;;
21860;SDS011;11095;48.066;8.540;2023-07-31T01:02:33;4.43;;;2.83;;
21860;SDS011;11095;48.066;8.540;2023-07-31T01:04:59;4.03;;;3.13;;
21860;SDS011;11095;48.066;8.540;2023-07-31T01:10:17;3.95;;;2.60;;
21860;SDS011;11095;48.066;8.540;2023-07-31T01:12:46;6.53;;;3.00;;
21860;SDS011;11095;48.066;8.540;2023-07-31T01:15:13;3.92;;;2.90;;
21860;SDS011;11095;48.066;8.540;2023-07-31T01:17:41;4.35;;;3.05;;
21860;SDS011;11095;48.066;8.540;2023-07-31T01:20:11;3.97;;;2.70;;
21860;SDS011;11095;48.066;8.540;2023-07-31T01:28:41;2.97;;;2.38;;
21860;SDS011;11095;48.066;8.540;2023-07-31T01:31:26;2.80;;;2.35;;
21860;SDS011;11095;48.066;8.540;2023-07-31T01:33:56;5.18;;;2.65;;
21860;SDS011;11095;48.066;8.540;2023-07-31T01:36:24;3.67;;;2.55;;
21860;SDS011;11095;48.066;8.540;2023-07-31T01:38:50;3.00;;;2.58;;
21860;SDS011;11095;48.066;8.540;2023-07-31T01:41:17;3.53;;;2.70;;
21860;SDS011;11095;48.066;8.540;2023-07-31T01:43:43;4.93;;;2.47;;
21860;SDS011;11095;48.066;8.540;2023-07-31T01:46:09;4.40;;;3.00;;
21860;SDS011;11095;48.066;8.540;2023-07-31T01:48:34;6.03;;;2.70;;
21860;SDS011;11095;48.066;8.540;2023-07-31T01:51:01;4.03;;;2.33;;
21860;SDS011;11095;48.066;8.540;2023-07-31T01:53:28;3.15;;;2.58;;
21860;SDS011;11095;48.066;8.540;2023-07-31T01:55:54;3.17;;;2.50;;
21860;SDS011;11095;48.066;8.540;2023-07-31T01:58:20;3.33;;;2.47;;
21860;SDS011;11095;48.066;8.540;2023-07-31T02:00:46;3.53;;;2.50;;
21860;SDS011;11095;48.066;8.540;2023-07-31T02:03:11;3.78;;;2.78;;
21860;SDS011;11095;48.066;8.540;2023-07-31T02:05:43;3.53;;;2.60;;
21860;SDS011;11095;48.066;8.540;2023-07-31T02:08:12;4.10;;;2.58;;
21860;SDS011;11095;48.066;8.540;2023-07-31T02:10:38;4.38;;;2.40;;
21860;SDS011;11095;48.066;8.540;2023-07-31T02:13:03;5.78;;;3.00;;
21860;SDS011;11095;48.066;8.540;2023-07-31T02:15:29;3.70;;;2.65;;
21860;SDS011;11095;48.066;8.540;2023-07-31T02:17:55;3.03;;;2.67;;
21860;SDS011;11095;48.066;8.540;2023-07-31T02:20:21;3.42;;;2.90;;
21860;SDS011;11095;48.066;8.540;2023-07-31T02:22:46;3.65;;;2.65;;
21860;SDS011;11095;48.066;8.540;2023-07-31T02:25:12;3.17;;;2.60;;
21860;SDS011;11095;48.066;8.540;2023-07-31T02:27:38;2.90;;;2.58;;
21860;SDS011;11095;48.066;8.540;2023-07-31T02:30:04;4.28;;;2.80;;
21860;SDS011;11095;48.066;8.540;2023-07-31T02:32:29;6.13;;;2.72;;
21860;SDS011;11095;48.066;8.540;2023-07-31T02:34:55;4.68;;;2.80;;
21860;SDS011;11095;48.066;8.540;2023-07-31T02:37:21;4.05;;;2.80;;
21860;SDS011;11095;48.066;8.540;2023-07-31T02:39:46;3.33;;;2.80;;
21860;SDS011;11095;48.066;8.540;2023-07-31T02:42:12;4.07;;;2.60;;
21860;SDS011;11095;48.066;8.540;2023-07-31T02:44:38;3.30;;;2.65;;
21860;SDS011;11095;48.066;8.540;2023-07-31T02:47:04;3.60;;;2.78;;
21860;SDS011;11095;48.066;8.540;2023-07-31T02:49:29;3.67;;;2.80;;
21860;SDS011;11095;48.066;8.540;2023-07-31T02:51:55;3.88;;;2.70;;
21860;SDS011;11095;48.066;8.540;2023-07-31T02:54:20;3.42;;;2.55;;
21860;SDS011;11095;48.066;8.540;2023-07-31T02:56:46;4.03;;;2.65;;
21860;SDS011;11095;48.066;8.540;2023-07-31T02:59:12;2.83;;;2.53;;
21860;SDS011;11095;48.066;8.540;2023-07-31T03:01:38;4.55;;;2.97;;
21860;SDS011;11095;48.066;8.540;2023-07-31T03:04:04;3.20;;;2.67;;
21860;SDS011;11095;48.066;8.540;2023-07-31T03:06:29;4.35;;;2.90;;
21860;SDS011;11095;48.066;8.540;2023-07-31T03:08:55;4.45;;;2.72;;
21860;SDS011;11095;48.066;8.540;2023-07-31T03:11:20;3.72;;;2.63;;
21860;SDS011;11095;48.066;8.540;2023-07-31T03:13:46;3.03;;;2.70;;
21860;SDS011;11095;48.066;8.540;2023-07-31T03:16:12;2.97;;;2.67;;
21860;SDS011;11095;48.066;8.540;2023-07-31T03:18:37;3.35;;;2.70;;
21860;SDS011;11095;48.066;8.540;2023-07-31T03:21:03;3.90;;;2.90;;
21860;SDS011;11095;48.066;8.540;2023-07-31T03:23:29;3.45;;;2.80;;
21860;SDS011;11095;48.066;8.540;2023-07-31T03:25:56;3.10;;;2.80;;
21860;SDS011;11095;48.066;8.540;2023-07-31T03:28:24;6.07;;;2.75;;
21860;SDS011;11095;48.066;8.540;2023-07-31T03:30:50;5.95;;;2.92;;
21860;SDS011;11095;48.066;8.540;2023-07-31T03:33:16;4.15;;;2.90;;
21860;SDS011;11095;48.066;8.540;2023-07-31T03:35:42;3.45;;;3.00;;
21860;SDS011;11095;48.066;8.540;2023-07-31T03:38:08;3.72;;;3.05;;
21860;SDS011;11095;48.066;8.540;2023-07-31T03:40:33;3.67;;;2.70;;
21860;SDS011;11095;48.066;8.540;2023-07-31T03:42:59;4.57;;;3.00;;
21860;SDS011;11095;48.066;8.540;2023-07-31T03:45:24;4.32;;;2.90;;
21860;SDS011;11095;48.066;8.540;2023-07-31T03:47:50;3.85;;;2.90;;
21860;SDS011;11095;48.066;8.540;2023-07-31T03:50:16;3.92;;;3.50;;
21860;SDS011;11095;48.066;8.540;2023-07-31T03:52:41;4.80;;;3.47;;
21860;SDS011;11095;48.066;8.540;2023-07-31T03:55:07;5.20;;;3.90;;
21860;SDS011;11095;48.066;8.540;2023-07-31T03:57:33;5.72;;;4.05;;
21860;SDS011;11095;48.066;8.540;2023-07-31T03:59:58;6.07;;;4.47;;
21860;SDS011;11095;48.066;8.540;2023-07-31T04:02:24;4.78;;;3.90;;
21860;SDS011;11095;48.066;8.540;2023-07-31T04:04:50;6.00;;;4.30;;
21860;SDS011;11095;48.066;8.540;2023-07-31T04:07:15;4.93;;;4.00;;
21860;SDS011;11095;48.066;8.540;2023-07-31T04:09:41;5.30;;;4.05;;
21860;SDS011;11095;48.066;8.540;2023-07-31T04:12:06;4.38;;;3.78;;
21860;SDS011;11095;48.066;8.540;2023-07-31T04:14:32;4.57;;;3.58;;
21860;SDS011;11095;48.066;8.540;2023-07-31T04:16:58;4.75;;;4.10;;
21860;SDS011;11095;48.066;8.540;2023-07-31T04:19:23;4.15;;;3.33;;
21860;SDS011;11095;48.066;8.540;2023-07-31T04:21:49;3.78;;;3.10;;
21860;SDS011;11095;48.066;8.540;2023-07-31T04:24:15;5.88;;;3.30;;
21860;SDS011;11095;48.066;8.540;2023-07-31T04:26:40;3.63;;;3.20;;
21860;SDS011;11095;48.066;8.540;2023-07-31T04:29:06;3.80;;;3.00;;
21860;SDS011;11095;48.066;8.540;2023-07-31T04:31:32;3.22;;;2.60;;
21860;SDS011;11095;48.066;8.540;2023-07-31T04:33:58;3.50;;;2.72;;
21860;SDS011;11095;48.066;8.540;2023-07-31T04:36:24;3.40;;;2.60;;
21860;SDS011;11095;48.066;8.540;2023-07-31T04:38:49;4.13;;;2.53;;
21860;SDS011;11095;48.066;8.540;2023-07-31T04:41:15;2.88;;;2.40;;
21860;SDS011;11095;48.066;8.540;2023-07-31T04:43:40;3.60;;;2.50;;
21860;SDS011;11095;48.066;8.540;2023-07-31T04:46:06;4.32;;;2.65;;
21860;SDS011;11095;48.066;8.540;2023-07-31T04:48:32;5.35;;;2.20;;
21860;SDS011;11095;48.066;8.540;2023-07-31T04:50:57;3.25;;;2.40;;
21860;SDS011;11095;48.066;8.540;2023-07-31T04:53:23;3.70;;;2.40;;
21860;SDS011;11095;48.066;8.540;2023-07-31T04:55:48;3.25;;;2.53;;
21860;SDS011;11095;48.066;8.540;2023-07-31T04:58:14;8.90;;;2.90;;
21860;SDS011;11095;48.066;8.540;2023-07-31T05:00:39;3.60;;;2.20;;
21860;SDS011;11095;48.066;8.540;2023-07-31T05:03:05;3.58;;;2.22;;
21860;SDS011;11095;48.066;8.540;2023-07-31T05:05:31;3.80;;;2.47;;
21860;SDS011;11095;48.066;8.540;2023-07-31T05:07:57;3.22;;;2.35;;
21860;SDS011;11095;48.066;8.540;2023-07-31T05:10:23;3.10;;;2.05;;
21860;SDS011;11095;48.066;8.540;2023-07-31T05:12:48;3.80;;;2.40;;
21860;SDS011;11095;48.066;8.540;2023-07-31T05:15:14;5.13;;;2.38;;
21860;SDS011;11095;48.066;8.540;2023-07-31T05:17:40;3.47;;;2.08;;
21860;SDS011;11095;48.066;8.540;2023-07-31T05:20:05;3.15;;;2.10;;
21860;SDS011;11095;48.066;8.540;2023-07-31T05:22:31;3.40;;;2.10;;
21860;SDS011;11095;48.066;8.540;2023-07-31T05:24:57;2.22;;;1.98;;
21860;SDS011;11095;48.066;8.540;2023-07-31T05:27:22;3.17;;;2.13;;
21860;SDS011;11095;48.066;8.540;2023-07-31T05:29:48;4.68;;;2.47;;
21860;SDS011;11095;48.066;8.540;2023-07-31T05:32:14;3.92;;;2.60;;
21860;SDS011;11095;48.066;8.540;2023-07-31T05:34:39;3.20;;;2.50;;
21860;SDS011;11095;48.066;8.540;2023-07-31T05:37:05;3.25;;;2.40;;
21860;SDS011;11095;48.066;8.540;2023-07-31T05:39:31;4.30;;;2.38;;
21860;SDS011;11095;48.066;8.540;2023-07-31T05:41:57;4.05;;;2.30;;
21860;SDS011;11095;48.066;8.540;2023-07-31T05:44:22;3.33;;;2.25;;
21860;SDS011;11095;48.066;8.540;2023-07-31T05:46:48;3.05;;;2.30;;
21860;SDS011;11095;48.066;8.540;2023-07-31T05:49:13;3.08;;;2.50;;
21860;SDS011;11095;48.066;8.540;2023-07-31T05:51:39;2.88;;;2.33;;
21860;SDS011;11095;48.066;8.540;2023-07-31T05:54:04;4.45;;;2.90;;
21860;SDS011;11095;48.066;8.540;2023-07-31T05:56:30;3.10;;;2.45;;
21860;SDS011;11095;48.066;8.540;2023-07-31T05:58:56;4.72;;;3.00;;
21860;SDS011;11095;48.066;8.540;2023-07-31T06:01:22;2.95;;;2.40;;
21860;SDS011;11095;48.066;8.540;2023-07-31T06:03:47;3.70;;;2.55;;
21860;SDS011;11095;48.066;8.540;2023-07-31T06:06:13;3.47;;;2.30;;
21860;SDS011;11095;48.066;8.540;2023-07-31T06:08:39;2.80;;;2.13;;
21860;SDS011;11095;48.066;8.540;2023-07-31T06:11:05;4.63;;;2.30;;
21860;SDS011;11095;48.066;8.540;2023-07-31T06:13:31;2.83;;;1.90;;
21860;SDS011;11095;48.066;8.540;2023-07-31T06:15:56;3.85;;;2.22;;
21860;SDS011;11095;48.066;8.540;2023-07-31T06:18:22;3.80;;;2.20;;
21860;SDS011;11095;48.066;8.540;2023-07-31T06:20:47;2.80;;;1.90;;
21860;SDS011;11095;48.066;8.540;2023-07-31T06:23:18;5.00;;;2.20;;
21860;SDS011;11095;48.066;8.540;2023-07-31T06:25:44;3.00;;;1.80;;
21860;SDS011;11095;48.066;8.540;2023-07-31T06:28:10;3.85;;;2.20;;
21860;SDS011;11095;48.066;8.540;2023-07-31T06:30:35;2.80;;;2.00;;
21860;SDS011;11095;48.066;8.540;2023-07-31T06:33:01;2.88;;;2.00;;
21860;SDS011;11095;48.066;8.540;2023-07-31T06:35:26;4.88;;;2.30;;
21860;SDS011;11095;48.066;8.540;2023-07-31T06:37:52;2.53;;;1.63;;
21860;SDS011;11095;48.066;8.540;2023-07-31T06:40:18;3.17;;;2.03;;
21860;SDS011;11095;48.066;8.540;2023-07-31T06:42:44;3.45;;;1.75;;
21860;SDS011;11095;48.066;8.540;2023-07-31T06:45:10;3.65;;;2.20;;
21860;SDS011;11095;48.066;8.540;2023-07-31T06:47:35;3.47;;;1.90;;
21860;SDS011;11095;48.066;8.540;2023-07-31T06:50:01;3.85;;;2.10;;
21860;SDS011;11095;48.066;8.540;2023-07-31T06:52:26;2.53;;;1.80;;
21860;SDS011;11095;48.066;8.540;2023-07-31T06:57:54;2.55;;;1.42;;
21860;SDS011;11095;48.066;8.540;2023-07-31T07:00:21;3.75;;;1.40;;
21860;SDS011;11095;48.066;8.540;2023-07-31T07:02:47;1.83;;;1.20;;
21860;SDS011;11095;48.066;8.540;2023-07-31T07:05:14;1.90;;;1.25;;
21860;SDS011;11095;48.066;8.540;2023-07-31T07:07:41;2.72;;;1.58;;
21860;SDS011;11095;48.066;8.540;2023-07-31T07:10:06;3.65;;;1.38;;
21860;SDS011;11095;48.066;8.540;2023-07-31T07:12:33;3.28;;;1.63;;
21860;SDS011;11095;48.066;8.540;2023-07-31T07:14:59;2.85;;;1.50;;
21860;SDS011;11095;48.066;8.540;2023-07-31T07:17:25;3.25;;;1.40;;
21860;SDS011;11095;48.066;8.540;2023-07-31T07:19:52;2.75;;;1.52;;
21860;SDS011;11095;48.066;8.540;2023-07-31T07:22:18;2.50;;;1.40;;
21860;SDS011;11095;48.066;8.540;2023-07-31T07:24:43;2.22;;;1.50;;
21860;SDS011;11095;48.066;8.540;2023-07-31T07:27:09;2.83;;;1.55;;
21860;SDS011;11095;48.066;8.540;2023-07-31T07:29:35;4.32;;;1.60;;
21860;SDS011;11095;48.066;8.540;2023-07-31T07:32:01;2.00;;;1.50;;
21860;SDS011;11095;48.066;8.540;2023-07-31T07:34:27;1.92;;;1.40;;
21860;SDS011;11095;48.066;8.540;2023-07-31T07:36:53;3.88;;;1.70;;
21860;SDS011;11095;48.066;8.540;2023-07-31T07:39:19;2.80;;;1.58;;
21860;SDS011;11095;48.066;8.540;2023-07-31T07:41:45;3.22;;;1.77;;
21860;SDS011;11095;48.066;8.540;2023-07-31T07:44:11;2.90;;;1.60;;
21860;SDS011;11095;48.066;8.540;2023-07-31T07:46:37;2.88;;;1.70;;
21860;SDS011;11095;48.066;8.540;2023-07-31T07:49:03;4.75;;;1.60;;
21860;SDS011;11095;48.066;8.540;2023-07-31T07:51:29;4.50;;;1.73;;
21860;SDS011;11095;48.066;8.540;2023-07-31T07:53:56;2.45;;;1.55;;
21860;SDS011;11095;48.066;8.540;2023-07-31T07:56:25;2.13;;;1.48;;
21860;SDS011;11095;48.066;8.540;2023-07-31T07:58:51;3.30;;;1.52;;
21860;SDS011;11095;48.066;8.540;2023-07-31T08:01:17;3.28;;;1.40;;
21860;SDS011;11095;48.066;8.540;2023-07-31T08:03:43;2.63;;;1.30;;
21860;SDS011;11095;48.066;8.540;2023-07-31T08:06:09;3.22;;;1.45;;
21860;SDS011;11095;48.066;8.540;2023-07-31T08:08:35;2.08;;;1.20;;
21860;SDS011;11095;48.066;8.540;2023-07-31T08:11:01;3.97;;;1.73;;
21860;SDS011;11095;48.066;8.540;2023-07-31T08:13:27;2.85;;;1.30;;
21860;SDS011;11095;48.066;8.540;2023-07-31T08:15:52;4.65;;;1.50;;
21860;SDS011;11095;48.066;8.540;2023-07-31T08:18:18;3.33;;;1.60;;
21860;SDS011;11095;48.066;8.540;2023-07-31T08:20:45;2.13;;;1.30;;
21860;SDS011;11095;48.066;8.540;2023-07-31T08:23:10;3.83;;;1.60;;
21860;SDS011;11095;48.066;8.540;2023-07-31T08:25:36;1.92;;;1.10;;
21860;SDS011;11095;48.066;8.540;2023-07-31T08:28:02;3.53;;;1.27;;
21860;SDS011;11095;48.066;8.540;2023-07-31T08:30:29;3.15;;;1.50;;
21860;SDS011;11095;48.066;8.540;2023-07-31T08:32:55;2.78;;;1.27;;
21860;SDS011;11095;48.066;8.540;2023-07-31T08:35:21;2.55;;;1.40;;
21860;SDS011;11095;48.066;8.540;2023-07-31T08:37:47;2.60;;;1.38;;
21860;SDS011;11095;48.066;8.540;2023-07-31T08:40:12;2.42;;;1.50;;
21860;SDS011;11095;48.066;8.540;2023-07-31T08:42:45;3.33;;;1.67;;
21860;SDS011;11095;48.066;8.540;2023-07-31T08:45:18;3.80;;;1.40;;
21860;SDS011;11095;48.066;8.540;2023-07-31T08:47:44;2.65;;;1.50;;
21860;SDS011;11095;48.066;8.540;2023-07-31T08:50:15;2.72;;;1.48;;
21860;SDS011;11095;48.066;8.540;2023-07-31T08:52:45;3.28;;;1.55;;
21860;SDS011;11095;48.066;8.540;2023-07-31T08:55:12;1.98;;;1.30;;
21860;SDS011;11095;48.066;8.540;2023-07-31T08:57:38;3.42;;;1.55;;
21860;SDS011;11095;48.066;8.540;2023-07-31T09:00:04;2.38;;;1.30;;
21860;SDS011;11095;48.066;8.540;2023-07-31T09:02:32;3.92;;;1.50;;
21860;SDS011;11095;48.066;8.540;2023-07-31T09:05:02;3.58;;;1.58;;
21860;SDS011;11095;48.066;8.540;2023-07-31T09:07:30;2.35;;;1.50;;
21860;SDS011;11095;48.066;8.540;2023-07-31T09:09:58;2.47;;;1.40;;
21860;SDS011;11095;48.066;8.540;2023-07-31T09:12:24;2.08;;;1.48;;
21860;SDS011;11095;48.066;8.540;2023-07-31T09:14:50;3.55;;;1.40;;
21860;SDS011;11095;48.066;8.540;2023-07-31T09:17:16;2.13;;;1.38;;
21860;SDS011;11095;48.066;8.540;2023-07-31T09:19:53;3.00;;;1.30;;
21860;SDS011;11095;48.066;8.540;2023-07-31T09:22:18;2.83;;;1.30;;
21860;SDS011;11095;48.066;8.540;2023-07-31T09:24:57;1.95;;;1.20;;
21860;SDS011;11095;48.066;8.540;2023-07-31T09:27:45;2.17;;;1.40;;
21860;SDS011;11095;48.066;8.540;2023-07-31T09:30:12;2.75;;;1.27;;
21860;SDS011;11095;48.066;8.540;2023-07-31T09:32:38;2.28;;;1.48;;
21860;SDS011;11095;48.066;8.540;2023-07-31T09:35:15;2.97;;;1.40;;
21860;SDS011;11095;48.066;8.540;2023-07-31T09:37:55;2.70;;;1.30;;
21860;SDS011;11095;48.066;8.540;2023-07-31T09:40:38;2.28;;;1.20;;
21860;SDS011;11095;48.066;8.540;2023-07-31T09:43:09;3.92;;;1.50;;
21860;SDS011;11095;48.066;8.540;2023-07-31T09:45:40;3.75;;;1.50;;
21860;SDS011;11095;48.066;8.540;2023-07-31T09:48:07;4.13;;;1.48;;
21860;SDS011;11095;48.066;8.540;2023-07-31T09:50:36;2.83;;;1.50;;
21860;SDS011;11095;48.066;8.540;2023-07-31T09:53:03;2.50;;;1.30;;
21860;SDS011;11095;48.066;8.540;2023-07-31T09:55:29;2.63;;;1.50;;
21860;SDS011;11095;48.066;8.540;2023-07-31T09:57:56;2.40;;;1.52;;
21860;SDS011;11095;48.066;8.540;2023-07-31T10:00:22;2.22;;;1.50;;
21860;SDS011;11095;48.066;8.540;2023-07-31T10:02:50;1.88;;;1.20;;
21860;SDS011;11095;48.066;8.540;2023-07-31T10:05:17;3.88;;;1.50;;
21860;SDS011;11095;48.066;8.540;2023-07-31T10:07:43;2.85;;;1.30;;
21860;SDS011;11095;48.066;8.540;2023-07-31T10:10:20;2.78;;;1.27;;
21860;SDS011;11095;48.066;8.540;2023-07-31T10:12:48;2.58;;;1.40;;
21860;SDS011;11095;48.066;8.540;2023-07-31T10:15:15;2.60;;;1.60;;
21860;SDS011;11095;48.066;8.540;2023-07-31T10:17:41;2.20;;;1.50;;
21860;SDS011;11095;48.066;8.540;2023-07-31T10:20:07;2.53;;;1.45;;
21860;SDS011;11095;48.066;8.540;2023-07-31T10:22:33;3.15;;;1.50;;
21860;SDS011;11095;48.066;8.540;2023-07-31T10:25:00;2.33;;;1.13;;
21860;SDS011;11095;48.066;8.540;2023-07-31T10:27:26;2.15;;;1.40;;
21860;SDS011;11095;48.066;8.540;2023-07-31T10:29:52;1.92;;;1.25;;
21860;SDS011;11095;48.066;8.540;2023-07-31T10:32:20;2.50;;;1.50;;
21860;SDS011;11095;48.066;8.540;2023-07-31T10:34:46;2.20;;;1.30;;
21860;SDS011;11095;48.066;8.540;2023-07-31T10:37:24;1.58;;;1.25;;
21860;SDS011;11095;48.066;8.540;2023-07-31T10:42:27;2.97;;;1.50;;
21860;SDS011;11095;48.066;8.540;2023-07-31T10:45:04;3.15;;;1.60;;
21860;SDS011;11095;48.066;8.540;2023-07-31T10:47:40;2.55;;;1.40;;
21860;SDS011;11095;48.066;8.540;2023-07-31T10:50:22;2.72;;;1.50;;
21860;SDS011;11095;48.066;8.540;2023-07-31T10:52:49;2.72;;;1.67;;
21860;SDS011;11095;48.066;8.540;2023-07-31T10:55:30;2.45;;;1.50;;
21860;SDS011;11095;48.066;8.540;2023-07-31T10:57:57;2.25;;;1.58;;
21860;SDS011;11095;48.066;8.540;2023-07-31T11:00:29;4.65;;;1.63;;
21860;SDS011;11095;48.066;8.540;2023-07-31T11:03:05;3.20;;;1.73;;
21860;SDS011;11095;48.066;8.540;2023-07-31T11:05:51;3.33;;;1.58;;
21860;SDS011;11095;48.066;8.540;2023-07-31T11:08:27;2.95;;;1.60;;
21860;SDS011;11095;48.066;8.540;2023-07-31T11:16:18;3.80;;;1.77;;
21860;SDS011;11095;48.066;8.540;2023-07-31T11:18:45;3.88;;;1.60;;
21860;SDS011;11095;48.066;8.540;2023-07-31T11:21:13;2.72;;;1.55;;
21860;SDS011;11095;48.066;8.540;2023-07-31T11:23:40;3.35;;;1.48;;
21860;SDS011;11095;48.066;8.540;2023-07-31T11:26:06;2.50;;;1.55;;
21860;SDS011;11095;48.066;8.540;2023-07-31T11:28:32;2.67;;;1.42;;
21860;SDS011;11095;48.066;8.540;2023-07-31T11:30:59;4.85;;;1.80;;
21860;SDS011;11095;48.066;8.540;2023-07-31T11:33:25;2.83;;;1.80;;
21860;SDS011;11095;48.066;8.540;2023-07-31T11:35:51;3.38;;;1.85;;
21860;SDS011;11095;48.066;8.540;2023-07-31T11:38:21;2.17;;;1.98;;
21860;SDS011;11095;48.066;8.540;2023-07-31T11:40:48;2.97;;;2.22;;
21860;SDS011;11095;48.066;8.540;2023-07-31T11:43:14;3.20;;;2.50;;
21860;SDS011;11095;48.066;8.540;2023-07-31T11:45:44;3.67;;;2.72;;
21860;SDS011;11095;48.066;8.540;2023-07-31T11:48:18;3.40;;;2.50;;
21860;SDS011;11095;48.066;8.540;2023-07-31T11:50:44;3.15;;;2.50;;
21860;SDS011;11095;48.066;8.540;2023-07-31T11:53:11;3.72;;;2.75;;
21860;SDS011;11095;48.066;8.540;2023-07-31T11:55:38;3.50;;;2.50;;
21860;SDS011;11095;48.066;8.540;2023-07-31T11:58:04;2.80;;;2.42;;
21860;SDS011;11095;48.066;8.540;2023-07-31T12:00:30;3.38;;;2.40;;
21860;SDS011;11095;48.066;8.540;2023-07-31T12:02:55;2.70;;;2.15;;
21860;SDS011;11095;48.066;8.540;2023-07-31T12:05:21;3.67;;;2.38;;
21860;SDS011;11095;48.066;8.540;2023-07-31T12:07:52;2.72;;;2.42;;
21860;SDS011;11095;48.066;8.540;2023-07-31T12:10:26;5.45;;;2.70;;
21860;SDS011;11095;48.066;8.540;2023-07-31T12:12:59;3.55;;;2.75;;
21860;SDS011;11095;48.066;8.540;2023-07-31T12:15:29;4.63;;;3.00;;
21860;SDS011;11095;48.066;8.540;2023-07-31T12:17:57;3.10;;;2.58;;
21860;SDS011;11095;48.066;8.540;2023-07-31T12:20:23;5.60;;;2.70;;
21860;SDS011;11095;48.066;8.540;2023-07-31T12:22:48;4.63;;;2.80;;
21860;SDS011;11095;48.066;8.540;2023-07-31T12:25:17;3.17;;;2.55;;
21860;SDS011;11095;48.066;8.540;2023-07-31T12:27:46;4.45;;;2.80;;
21860;SDS011;11095;48.066;8.540;2023-07-31T12:30:31;3.20;;;2.73;;
21860;SDS011;11095;48.066;8.540;2023-07-31T12:33:02;3.78;;;3.10;;
21860;SDS011;11095;48.066;8.540;2023-07-31T12:35:44;3.83;;;3.08;;
21860;SDS011;11095;48.066;8.540;2023-07-31T12:38:11;4.35;;;3.13;;
21860;SDS011;11095;48.066;8.540;2023-07-31T12:40:38;4.22;;;2.90;;
21860;SDS011;11095;48.066;8.540;2023-07-31T12:43:04;3.28;;;2.50;;
21860;SDS011;11095;48.066;8.540;2023-07-31T12:45:30;3.70;;;2.75;;
21860;SDS011;11095;48.066;8.540;2023-07-31T12:47:57;2.97;;;2.67;;
21860;SDS011;11095;48.066;8.540;2023-07-31T12:50:23;3.97;;;2.90;;
21860;SDS011;11095;48.066;8.540;2023-07-31T12:52:49;3.13;;;2.50;;
21860;SDS011;11095;48.066;8.540;2023-07-31T12:55:15;3.53;;;2.80;;
21860;SDS011;11095;48.066;8.540;2023-07-31T12:57:40;4.03;;;2.80;;
21860;SDS011;11095;48.066;8.540;2023-07-31T13:00:07;3.58;;;3.08;;
21860;SDS011;11095;48.066;8.540;2023-07-31T13:02:33;4.22;;;3.00;;
21860;SDS011;11095;48.066;8.540;2023-07-31T13:04:58;3.78;;;2.60;;
21860;SDS011;11095;48.066;8.540;2023-07-31T13:07:24;3.42;;;2.60;;
21860;SDS011;11095;48.066;8.540;2023-07-31T13:09:50;2.90;;;2.60;;
21860;SDS011;11095;48.066;8.540;2023-07-31T13:12:16;4.40;;;3.00;;
21860;SDS011;11095;48.066;8.540;2023-07-31T13:14:41;3.88;;;2.50;;
21860;SDS011;11095;48.066;8.540;2023-07-31T13:17:07;3.33;;;2.50;;
21860;SDS011;11095;48.066;8.540;2023-07-31T13:19:32;2.60;;;2.30;;
21860;SDS011;11095;48.066;8.540;2023-07-31T13:21:58;3.42;;;2.70;;
21860;SDS011;11095;48.066;8.540;2023-07-31T13:24:23;2.92;;;2.55;;
21860;SDS011;11095;48.066;8.540;2023-07-31T13:26:49;3.95;;;2.58;;
21860;SDS011;11095;48.066;8.540;2023-07-31T13:29:15;2.80;;;2.40;;
21860;SDS011;11095;48.066;8.540;2023-07-31T13:31:40;3.40;;;2.60;;
21860;SDS011;11095;48.066;8.540;2023-07-31T13:34:06;4.18;;;2.80;;
21860;SDS011;11095;48.066;8.540;2023-07-31T13:36:31;2.38;;;2.17;;
21860;SDS011;11095;48.066;8.540;2023-07-31T13:38:58;3.30;;;2.30;;
21860;SDS011;11095;48.066;8.540;2023-07-31T13:41:24;3.33;;;2.60;;
21860;SDS011;11095;48.066;8.540;2023-07-31T13:43:50;3.15;;;2.30;;
21860;SDS011;11095;48.066;8.540;2023-07-31T13:46:16;2.97;;;2.00;;
21860;SDS011;11095;48.066;8.540;2023-07-31T13:48:41;3.03;;;2.38;;
21860;SDS011;11095;48.066;8.540;2023-07-31T13:51:07;2.40;;;2.03;;
21860;SDS011;11095;48.066;8.540;2023-07-31T13:53:32;3.25;;;1.90;;
21860;SDS011;11095;48.066;8.540;2023-07-31T13:55:58;3.05;;;2.10;;
21860;SDS011;11095;48.066;8.540;2023-07-31T13:58:23;2.80;;;2.10;;
21860;SDS011;11095;48.066;8.540;2023-07-31T14:00:49;2.20;;;1.98;;
21860;SDS011;11095;48.066;8.540;2023-07-31T14:03:14;2.90;;;2.10;;
21860;SDS011;11095;48.066;8.540;2023-07-31T14:05:40;3.42;;;2.40;;
21860;SDS011;11095;48.066;8.540;2023-07-31T14:08:05;2.63;;;2.13;;
21860;SDS011;11095;48.066;8.540;2023-07-31T14:10:31;3.17;;;1.80;;
21860;SDS011;11095;48.066;8.540;2023-07-31T14:12:57;2.88;;;2.28;;
21860;SDS011;11095;48.066;8.540;2023-07-31T14:15:22;3.60;;;2.35;;
21860;SDS011;11095;48.066;8.540;2023-07-31T14:17:48;2.67;;;2.20;;
21860;SDS011;11095;48.066;8.540;2023-07-31T14:20:13;2.60;;;1.88;;
21860;SDS011;11095;48.066;8.540;2023-07-31T14:22:39;2.78;;;1.92;;
21860;SDS011;11095;48.066;8.540;2023-07-31T14:25:04;3.00;;;1.95;;
21860;SDS011;11095;48.066;8.540;2023-07-31T14:27:30;3.67;;;2.00;;
21860;SDS011;11095;48.066;8.540;2023-07-31T14:29:56;2.75;;;2.13;;
21860;SDS011;11095;48.066;8.540;2023-07-31T14:32:22;3.28;;;2.40;;
21860;SDS011;11095;48.066;8.540;2023-07-31T14:34:51;3.00;;;2.30;;
21860;SDS011;11095;48.066;8.540;2023-07-31T14:37:16;2.90;;;2.03;;
21860;SDS011;11095;48.066;8.540;2023-07-31T14:39:42;3.55;;;2.17;;
21860;SDS011;11095;48.066;8.540;2023-07-31T14:42:10;2.53;;;2.10;;
21860;SDS011;11095;48.066;8.540;2023-07-31T14:44:36;2.92;;;2.20;;
21860;SDS011;11095;48.066;8.540;2023-07-31T14:47:02;2.97;;;2.00;;
21860;SDS011;11095;48.066;8.540;2023-07-31T14:49:27;3.38;;;2.28;;
21860;SDS011;11095;48.066;8.540;2023-07-31T14:51:53;3.42;;;2.33;;
21860;SDS011;11095;48.066;8.540;2023-07-31T14:54:19;2.72;;;2.28;;
21860;SDS011;11095;48.066;8.540;2023-07-31T14:56:45;3.03;;;2.17;;
21860;SDS011;11095;48.066;8.540;2023-07-31T14:59:10;2.72;;;2.40;;
21860;SDS011;11095;48.066;8.540;2023-07-31T15:01:36;3.42;;;2.40;;
21860;SDS011;11095;48.066;8.540;2023-07-31T15:04:02;7.10;;;2.28;;
21860;SDS011;11095;48.066;8.540;2023-07-31T15:06:28;4.93;;;2.45;;